Tiempo atmosférico en la estación meteorológica de Bielsa, Huesca (990 m.)



Fecha
DESCASC
Temp. máxima en grados centígrados (hora)
DESCASC
Temp. mínima en grados centígrados (hora)
DESCASC
Temp. media en grados centígrados
DESCASC
Racha de viento máxima en m/sg (hora)
DESCASC
Velocidad máxima media en intervalos de 10 minutos(hora)
DESCASC
Precipitaciones diarias en mm
DESCASC
Precipitaciones de 00:00 a 06:00 en mm
DESCASC
Precipitaciones de 06:00 a 12:00 en mm
DESCASC
Precipitaciones de 12:00 a 18:00 en mm
DESCASC
Precipitaciones de 18:00 a 24:00 en mm
DESCASC
23-06-2019 30.3 (16:00) 10.6 (06:10) 20.4 8.61 (15:30) 3.06 (15:10) 0 0 0 0 0
22-06-2019 27.3 (16:20) 8.4 (06:40) 17.8 8.61 (16:00) 2.22 (15:00) 0 0 0 0 0
21-06-2019 23.4 (17:30) 11.4 (04:20) 17.4 7.78 (16:10) 3.61 (02:30) 9.4 7.6 1.8 0 0
20-06-2019 24.8 (15:30) 12.1 (00:00) 18.4 12.22 (17:00) 5.28 (17:00) 26.8 0 0 0 26.8
19-06-2019 27.1 (16:30) 9.2 (00:00) 18.2 8.61 (14:00) 3.06 (12:00) 0 0 0 0 0
18-06-2019 29.4 (14:40) 11.5 (00:00) 20.4 10.83 (15:40) 4.17 (19:30) 0 0 0 0 0
17-06-2019 29.7 (18:00) 8.3 (00:00) 19 8.33 (12:40) 2.5 (15:10) 0 0 0 0 0
16-06-2019 26.7 (17:20) 5.8 (00:00) 16.3 9.44 (12:10) 3.89 (12:10) 0 0 0 0 0
15-06-2019 23.9 (17:20) 9.5 (00:00) 16.7 8.33 (17:20) 2.78 (16:20) 4 4 0 0 0
14-06-2019 24 (13:00) 9.8 (00:00) 16.9 10 (14:50) 3.61 (15:10) 3.6 0 0 3.6 0
13-06-2019 23.2 (16:10) 4.1 (00:00) 13.7 10 (15:00) 2.78 (16:10) 0 0 0 0 0
12-06-2019 19.1 (17:00) 1.2 (00:00) 10.2 8.61 (15:20) 2.78 (11:30) 0 0 0 0 0
11-06-2019 13.4 (00:20) 3.8 (00:00) 8.6 9.44 (00:20) 3.33 (00:20) 10 3 2.6 4.4 0
10-06-2019 21.7 (18:40) 10.6 (00:00) 16.2 8.89 (22:20) 3.61 (15:10) 1.6 1.4 0.2 0 0
09-06-2019 25.6 (17:50) 10.5 (00:00) 18.1 10.28 (21:30) 3.33 (22:00) 0 0 0 0 0
08-06-2019 24 (17:20) 3.2 (00:00) 13.6 8.33 (15:00) 3.61 (15:00) 0 0 0 0 0
07-06-2019 19.8 (17:00) 6.4 (00:00) 13.1 20 (09:00) 7.78 (09:40) 8 0 8 0 0
06-06-2019 20.2 (16:10) 5.1 (00:00) 12.7 13.61 (16:30) 5.56 (16:30) 0 0 0 0 0
05-06-2019 17.5 (00:00) 6.7 (00:00) 12.1 9.72 (11:00) 3.89 (11:40) 16 0.4 9 6.6 0
04-06-2019 29.1 (17:00) 10.8 (00:00) 20 18.61 (16:30) 5.56 (16:30) 0 0 0 0 0
03-06-2019 29.4 (15:00) 13.2 (00:00) 21.3 8.06 (18:20) 3.06 (17:00) 0 0 0 0 0
02-06-2019 30.8 (16:50) 8.9 (00:00) 19.8 8.89 (16:00) 2.78 (16:20) 0 0 0 0 0
01-06-2019 28.8 (16:20) 7.9 (00:00) 18.3 8.89 (12:20) 3.61 (12:20) 0 0 0 0 0
31-05-2019 27.4 (17:50) 5.7 (00:00) 16.5 10.56 (12:20) 3.61 (12:20) 0 0 0 0 0
30-05-2019 25.9 (17:40) 6.3 (00:00) 16.1 10.83 (14:00) 4.72 (14:00) 0 0 0 0 0
29-05-2019 18.7 (15:40) 6.6 (00:00) 12.7 12.78 (17:20) 5 (11:00) 0 0 0 0 0
28-05-2019 18.6 (14:40) 8 (00:00) 13.3 17.5 (15:00) 6.67 (11:40) 0 0 0 0 0
27-05-2019 21.4 (12:20) 5.2 (00:00) 13.3 14.17 (18:20) 5.28 (14:50) 0 0 0 0 0
26-05-2019 21.9 (16:10) 7.2 (00:00) 14.5 12.78 (10:30) 5.28 (10:00) 0 0 0 0 0

Gráficas

Temp. máximas Temp. mínimas Temp. medias Precipitaciones Rachas de viento máximas Velocidades máximas media en intervalos de 10 minutos

Datos horarios

Fecha y hora oficial Temperatura (ºC) Velocidad del viento (km/h) Dirección del viento Racha (km/h) Dirección de racha Precipitación (mm) Presión (hPa) Tendencia (hPa) Humedad (%)
2019-06-24 23:00:00 -- -- -- -- -- -- -- -- --
2019-06-24 22:00:00 17.6 2 Noroeste 14 Nordeste 0 904.6 1.3 69
2019-06-24 21:00:00 20.5 0 Calma 6 Norte 0 903.8 0.6 62
2019-06-24 20:00:00 23.4 2 Noroeste 7 Sur 0 903.5 0 49
2019-06-24 19:00:00 27.5 2 Noroeste 20 Sur 0 903.3 -0.7 34
2019-06-24 18:00:00 29.3 2 Noroeste 12 Este 0 903.2 -0.8 38
2019-06-24 17:00:00 30.2 2 Sur 19 Este 0 903.5 -0.8 24
2019-06-24 16:00:00 29.1 4 Noroeste 23 Este 0 904 -0.4 29
2019-06-24 15:00:00 29.9 6 Sudeste 26 Este 0 904 -0.6 20
2019-06-24 14:00:00 29.2 6 Este 28 Sudeste 0 904.3 -0.3 25
2019-06-24 13:00:00 28.8 8 Sudeste 28 Sur 0 904.4 -0.9 30
2019-06-24 12:00:00 27.9 5 Sudeste 26 Sudeste 0 904.6 -1.2 32
2019-06-24 11:00:00 25.5 4 Este 12 Este 0 904.6 -1.6 42
2019-06-24 10:00:00 22 0 Calma 6 Sudeste 0 905.3 -0.7 55
2019-06-24 09:00:00 16.9 2 Este 8 Oeste 0 905.8 -0.2 82
2019-06-24 08:00:00 12.5 3 Oeste 10 Noroeste 0 906.2 -0.1 94
2019-06-24 07:00:00 12.2 2 Noroeste 16 Nordeste 0 906 -0.1 94
2019-06-24 06:00:00 12.4 0 Calma 17 Este 0 906 0.3 93
2019-06-24 05:00:00 12.8 0 Calma 8 Noroeste 0 906.3 0.4 92
2019-06-24 04:00:00 13.4 2 Noroeste 7 Noroeste 0 906.1 0.3 91
2019-06-24 03:00:00 14 3 Este 15 Noroeste 0 905.7 0.1 88
2019-06-24 02:00:00 14.1 3 Noroeste 9 Norte 0 905.9 0.8 89
2019-06-24 01:00:00 14.7 0 Calma 9 Norte 0 905.8 1.4 87
2019-06-24 00:00:00 15.3 2 Noroeste 5 Oeste 0 905.6 1.7 85
2019-06-23 23:00:00 16.6 0 Calma 7 Oeste 0 905.1 1.7 81
2019-06-23 22:00:00 18.2 0 Calma 8 Norte 0 904.4 1.3 75
2019-06-23 21:00:00 20.2 2 Noroeste 8 Noroeste 0 903.9 0.9 68
2019-06-23 20:00:00 23 3 Noroeste 5 Oeste 0 903.4 0 60
2019-06-23 19:00:00 27.2 2 Este 10 Sudeste 0 903.1 -0.6 45
2019-06-23 18:00:00 29 3 Sudoeste 23 Este 0 903 -0.8 38
2019-06-23 17:00:00 28.7 2 Oeste 20 Sudeste 0 903.4 -0.7 35
2019-06-23 16:00:00 29.9 8 Sudeste 31 Este 0 903.7 -0.5 28
2019-06-23 15:00:00 28.7 10 Sudeste 30 Sur 0 903.8 -0.5 30
2019-06-23 14:00:00 28.7 8 Sudeste 24 Sudeste 0 904.1 -0.2 30
2019-06-23 13:00:00 28.2 11 Sur 27 Este 0 904.2 -0.4 31
2019-06-23 12:00:00 26.6 7 Sudeste 27 Sur 0 904.3 -0.6 38
2019-06-23 11:00:00 23.9 4 Este 12 Este 0 904.3 -0.7 44
2019-06-23 10:00:00 21 0 Calma 5 Noroeste 0 904.6 -0.1 57
2019-06-23 09:00:00 15.5 3 Norte 13 Norte 0 904.9 0.1 78
2019-06-23 08:00:00 11.1 2 Noroeste 10 Noroeste 0 905 0.2 94
2019-06-23 07:00:00 10.8 3 Noroeste 10 Oeste 0 904.7 -0.4 93
2019-06-23 06:00:00 10.7 0 Calma 14 Oeste 0 904.8 -0.5 93
2019-06-23 05:00:00 11.1 4 Noroeste 13 Norte 0 904.8 -0.7 92
2019-06-23 04:00:00 11.1 3 Noroeste 10 Noroeste 0 905.1 -0.3 94
2019-06-23 03:00:00 11.6 3 Noroeste 10 Noroeste 0 905.3 0.3 92
2019-06-23 02:00:00 12.3 0 Calma 12 Norte 0 905.5 0.5 91
2019-06-23 01:00:00 12.8 2 Norte 15 Nordeste 0 905.4 1.2 91
2019-06-23 00:00:00 13.6 3 Noroeste 12 Sudoeste 0 905 1.4 88
2019-06-22 23:00:00 14.5 0 Calma 7 Noroeste 0 905 1.6 83
2019-06-22 22:00:00 15.5 2 Noroeste 8 Noroeste 0 904.2 1.2 81
2019-06-22 21:00:00 17.2 3 Noroeste 16 Norte 0 903.6 0.6 76
2019-06-22 20:00:00 20.6 0 Calma 8 Sur 0 903.4 0.2 60
2019-06-22 19:00:00 24.6 3 Sur 12 Sur 0 903 -0.1 47
2019-06-22 18:00:00 25.5 6 Sur 22 Sudeste 0 903 -0.7 33
2019-06-22 17:00:00 26.5 5 Sudeste 28 Sudeste 0 903.2 -1 33
2019-06-22 16:00:00 26.9 8 Sudeste 31 Sur 0 903.1 -1.6 33
2019-06-22 15:00:00 26.4 8 Sudeste 25 Este 0 903.7 -1.3 31
2019-06-22 14:00:00 26 8 Sudeste 24 Sur 0 904.2 -0.8 31
2019-06-22 13:00:00 24.7 7 Sudeste 25 Sur 0 904.7 -0.7 33
2019-06-22 12:00:00 23.4 6 Sudeste 19 Nordeste 0 905 -0.9 38
2019-06-22 11:00:00 21.4 4 Este 17 Este 0 905 -0.9 40
2019-06-22 10:00:00 18.1 2 Nordeste 8 Noroeste 0 905.4 -0.4 65
2019-06-22 09:00:00 13.1 0 Calma 8 Norte 0 905.9 0.1 92
2019-06-22 08:00:00 9.1 2 Noroeste 14 Nordeste 0 905.9 0.4 97
2019-06-22 07:00:00 8.5 0 Calma 8 Noroeste 0 905.8 0.2 97
2019-06-22 06:00:00 8.6 0 Calma 9 Noroeste 0 905.8 0.1 97
2019-06-22 05:00:00 9 0 Calma 8 Noroeste 0 905.5 -0.5 97
2019-06-22 04:00:00 9.4 0 Calma 5 Oeste 0 905.6 -0.4 97
2019-06-22 03:00:00 9.8 0 Calma 14 Este 0 905.7 -0.1 97
2019-06-22 02:00:00 10.4 2 Nordeste 6 Noroeste 0 906 0.4 96
2019-06-22 01:00:00 10.9 0 Calma 8 Noroeste 0 906 1.1 95
2019-06-22 00:00:00 11.8 3 Noroeste 13 Norte 0 905.8 1.4 94
2019-06-21 23:00:00 12.7 0 Calma 6 Noroeste 0 905.6 1.8 93
2019-06-21 22:00:00 14 0 Calma 5 Oeste 0 904.9 1.3 91
2019-06-21 21:00:00 15.5 0 Calma 11 Oeste 0 904.4 1.2 83
2019-06-21 20:00:00 17.4 3 Noroeste 15 Noroeste 0 903.8 0.6 74
2019-06-21 19:00:00 19.9 3 Oeste 19 Noroeste 0 903.6 0.7 58
2019-06-21 18:00:00 22 4 Sudeste 24 Este 0 903.2 -0.1 50
2019-06-21 17:00:00 22.4 6 Sudeste 28 Sudeste 0 903.2 -0.6 56
2019-06-21 16:00:00 20.3 9 Sudeste 27 Sudeste 0 902.9 -1.5 59
2019-06-21 15:00:00 21.4 5 Sudeste 21 Este 0 903.3 -1.5 59
2019-06-21 14:00:00 18.9 4 Este 16 Este 0 903.8 -0.7 66
2019-06-21 13:00:00 18.1 2 Este 7 Noroeste 0 904.4 -0.4 71
2019-06-21 12:00:00 17.1 4 Norte 8 Noroeste 0 904.8 -0.2 74
2019-06-21 11:00:00 15.9 0 Calma 10 Noroeste 0 904.5 0.2 85
2019-06-21 10:00:00 14.2 0 Calma 11 Norte 0 904.8 1.1 93
2019-06-21 09:00:00 12.5 5 Norte 12 Norte 0.6 905 1.9 97
2019-06-21 08:00:00 12.1 2 Noroeste 13 Norte 0.2 904.3 1.4 97
2019-06-21 07:00:00 11.8 3 Noroeste 9 Norte 1 903.7 0.1 97
2019-06-21 06:00:00 11.6 4 Norte 10 Este 1 903.1 -1 97
2019-06-21 05:00:00 11.4 3 Noroeste 10 Nordeste 0 902.9 -1.4 97
2019-06-21 04:00:00 11.7 2 Este 13 Noroeste 0 903.6 -1.3 97
2019-06-21 03:00:00 11.8 0 Calma 27 Norte 0 904.1 0.6 96
2019-06-21 02:00:00 12 2 Sudeste 19 Norte 0.2 904.3 0.1 97
2019-06-21 01:00:00 12 8 Noroeste 23 Noroeste 6.4 904.9 0.3 96
2019-06-21 00:00:00 12.5 2 Sur 16 Este 0 903.5 0.1 97
2019-06-20 23:00:00 12.2 6 Norte 19 Norte 2.8 904.2 2.7 97
2019-06-20 22:00:00 13 3 Sudeste 42 Noroeste 17.2 904.6 4.1 97
2019-06-20 21:00:00 14.6 3 Noroeste 42 Norte 6.8 903.4 2.6 93
2019-06-20 20:00:00 20.2 10 Norte 34 Noroeste 0 901.5 0.5 56
2019-06-20 19:00:00 22.9 8 Sudeste 29 Sur 0 900.5 -1 43
2019-06-20 18:00:00 23.6 6 Sudeste 39 Sudeste 0 900.8 -1 37
2019-06-20 17:00:00 23.6 19 Este 44 Este 0 901 -1.5 38
2019-06-20 16:00:00 24 12 Este 30 Este 0 901.5 -1.5 42
2019-06-20 15:00:00 23.9 6 Sudeste 31 Este 0 901.8 -1.7 46
2019-06-20 14:00:00 22.6 5 Sudeste 19 Este 0 902.5 -1.1 50
2019-06-20 13:00:00 21.5 6 Noroeste 14 Noroeste 0 903 -0.4 55
2019-06-20 12:00:00 19.3 3 Oeste 13 Noroeste 0 903.5 0 64
2019-06-20 11:00:00 17.4 4 Noroeste 12 Noroeste 0 903.6 0.7 76
2019-06-20 10:00:00 14.9 2 Sur 6 Norte 0 903.4 0.9 89
2019-06-20 09:00:00 14.9 3 Noroeste 9 Este 0 903.5 1 84
2019-06-20 08:00:00 13.8 2 Noroeste 12 Norte 0 902.9 0.3 82
2019-06-20 07:00:00 12.7 0 Calma 6 Este 0 902.5 -0.1 83
2019-06-20 06:00:00 12.3 0 Calma 6 Norte 0 902.5 -0.4 82
2019-06-20 05:00:00 12.9 2 Este 9 Noroeste 0 902.6 -0.5 79
2019-06-20 04:00:00 13.1 2 Este 14 Norte 0 902.6 -0.6 77
2019-06-20 03:00:00 12.8 2 Noroeste 10 Norte 0 902.9 -0.1 77
2019-06-20 02:00:00 13.7 3 Noroeste 14 Noroeste 0 903.1 0.2 73
2019-06-20 01:00:00 14.3 0 Calma 14 Noroeste 0 903.2 0.9 71
2019-06-20 00:00:00 13.9 2 Noroeste 13 Norte 0 903 1.2 73
2019-06-19 23:00:00 14 2 Noroeste 10 Noroeste 0 902.9 1.3 74
2019-06-19 22:00:00 15.1 2 Noroeste 10 Norte 0 902.3 1 71
2019-06-19 21:00:00 17 2 Noroeste 5 Norte 0 901.8 0.7 67
2019-06-19 20:00:00 19.4 2 Norte 6 Noroeste 0 901.6 0.3 58
2019-06-19 19:00:00 22.9 3 Noroeste 21 Sur 0 901.3 -0.2 44
2019-06-19 18:00:00 24.6 5 Este 27 Este 0 901.1 -0.8 29
2019-06-19 17:00:00 26.4 4 Sur 21 Sur 0 901.3 -0.7 25
2019-06-19 16:00:00 27 6 Este 25 Este 0 901.5 -0.6 25
2019-06-19 15:00:00 26 6 Este 27 Este 0 901.9 -0.1 25
2019-06-19 14:00:00 26.3 10 Sudeste 31 Este 0 902 -0.1 26
2019-06-19 13:00:00 26.1 8 Sudeste 29 Sur 0 902.1 -0.2 25
2019-06-19 12:00:00 24.9 11 Sudeste 26 Sur 0 902 -0.8 25
2019-06-19 11:00:00 23.2 9 Sudeste 29 Este 0 902.1 -0.9 32
2019-06-19 10:00:00 19.7 5 Este 18 Nordeste 0 902.3 -0.5 45
2019-06-19 09:00:00 13.8 2 Norte 8 Norte 0 902.8 -0.1 70
2019-06-19 08:00:00 9.3 2 Nordeste 12 Noroeste 0 903 0.2 87
2019-06-19 07:00:00 9.3 3 Noroeste 12 Noroeste 0 902.8 0.1 83
2019-06-19 06:00:00 9.4 2 Noroeste 11 Noroeste 0 902.9 0.2 84
2019-06-19 05:00:00 9.7 0 Calma 6 Oeste 0 902.8 0.1 85
2019-06-19 04:00:00 10.6 0 Calma 6 Noroeste 0 902.7 0.1 81
2019-06-19 03:00:00 11.5 0 Calma 8 Noroeste 0 902.7 0.3 79
2019-06-19 02:00:00 12.6 2 Noroeste 8 Norte 0 902.7 0.2 76
2019-06-19 01:00:00 13.7 2 Oeste 11 Noroeste 0 902.6 0.4 73
2019-06-19 00:00:00 15.4 2 Noroeste 12 Noroeste 0 902.4 1.1 69
2019-06-18 23:00:00 17.2 3 Norte 9 Noroeste 0 902.5 1.5 63
2019-06-18 22:00:00 19.6 0 Calma 8 Sur 0 902.2 1.6 51
2019-06-18 21:00:00 23.1 5 Noroeste 34 Nordeste 0 901.3 0.5 32
2019-06-18 20:00:00 24.8 8 Este 35 Este 0 901 -0.2 28
2019-06-18 19:00:00 27.5 14 Este 35 Sur 0 900.6 -1.2 22
2019-06-18 18:00:00 27.4 6 Sudeste 31 Este 0 900.8 -1.4 24
2019-06-18 17:00:00 28.5 9 Sudeste 34 Este 0 901.2 -1.3 22
2019-06-18 16:00:00 29.2 7 Sudeste 39 Este 0 901.8 -1.1 25
2019-06-18 15:00:00 29 12 Este 35 Este 0 902.2 -0.9 24
2019-06-18 14:00:00 28.4 8 Sudeste 24 Sudeste 0 902.5 -1.3 28
2019-06-18 13:00:00 28 7 Sudeste 31 Este 0 902.9 -1.5 30
2019-06-18 12:00:00 26.3 6 Sudeste 22 Sudeste 0 903.1 -1.8 32
2019-06-18 11:00:00 22.2 2 Sudeste 18 Noroeste 0 903.8 -0.9 44
2019-06-18 10:00:00 18.3 4 Norte 14 Norte 0 904.4 0.2 64
2019-06-18 09:00:00 14.6 3 Noroeste 8 Norte 0 904.9 0.6 77
2019-06-18 08:00:00 12.2 2 Noroeste 7 Noroeste 0 904.7 0.3 87
2019-06-18 07:00:00 11.5 3 Noroeste 12 Norte 0 904.2 -0.8 88
2019-06-18 06:00:00 12.4 0 Calma 17 Norte 0 904.3 -1.1 85
2019-06-18 05:00:00 12.6 0 Calma 9 Norte 0 904.4 -1.5 82
2019-06-18 04:00:00 12.6 0 Calma 8 Noroeste 0 905 -0.9 81
2019-06-18 03:00:00 12.5 2 Oeste 9 Noroeste 0 905.4 0 79
2019-06-18 02:00:00 12.2 2 Noroeste 10 Noroeste 0 905.9 1 81
2019-06-18 01:00:00 12.7 3 Noroeste 7 Noroeste 0 905.9 1.6 78
2019-06-18 00:00:00 13.9 0 Calma 8 Noroeste 0 905.4 1.7 72
2019-06-17 23:00:00 14.9 3 Norte 15 Oeste 0 904.9 1.5 68
2019-06-17 22:00:00 15.6 3 Noroeste 8 Noroeste 0 904.3 1.2 67
2019-06-17 21:00:00 17.6 3 Noroeste 7 Norte 0 903.7 0.7 64
2019-06-17 20:00:00 20.6 0 Calma 6 Noroeste 0 903.4 0 51
2019-06-17 19:00:00 26.6 0 Calma 17 Sur 0 903.1 -0.8 33
2019-06-17 18:00:00 29.4 4 Sudeste 22 Este 0 903 -1.2 23
2019-06-17 17:00:00 28.6 4 Este 21 Sudeste 0 903.4 -1.2 24
2019-06-17 16:00:00 28.1 5 Sudeste 25 Sur 0 903.9 -1.2 24
2019-06-17 15:00:00 27.7 7 Sudeste 22 Sudeste 0 904.2 -1 23
2019-06-17 14:00:00 27.8 8 Sudeste 24 Este 0 904.6 -0.9 24
2019-06-17 13:00:00 27 7 Sudeste 30 Sudeste 0 905.1 -0.9 28
2019-06-17 12:00:00 26.1 6 Sudeste 28 Este 0 905.2 -1.4 28
2019-06-17 11:00:00 23.4 7 Sudeste 17 Sur 0 905.5 -1.5 34
2019-06-17 10:00:00 19.2 2 Nordeste 14 Sudeste 0 906 -0.9 53
2019-06-17 09:00:00 14 0 Calma 8 Oeste 0 906.6 0 73
2019-06-17 08:00:00 8.7 0 Calma 15 Sudoeste 0 907 0.5 91
2019-06-17 07:00:00 8.4 0 Calma 10 Noroeste 0 906.9 -0.1 92
2019-06-17 06:00:00 8.6 3 Noroeste 8 Oeste 0 906.6 -0.5 92
2019-06-17 05:00:00 8.8 2 Noroeste 10 Noroeste 0 906.5 -0.8 90
2019-06-17 04:00:00 9.3 2 Noroeste 8 Noroeste 0 907 -0.4 89
2019-06-17 03:00:00 9.8 3 Noroeste 14 Sudoeste 0 907.1 0 88
2019-06-17 02:00:00 10.8 0 Calma 9 Noroeste 0 907.3 0.4 85
2019-06-17 01:00:00 11.7 0 Calma 14 Noroeste 0 907.4 1.1 81
2019-06-17 00:00:00 12.2 0 Calma 9 Noroeste 0 907.1 1.6 81
2019-06-16 23:00:00 13 2 Noroeste 6 Noroeste 0 906.9 1.6 78
2019-06-16 22:00:00 14.5 3 Noroeste 6 Norte 0 906.3 1.1 74
2019-06-16 21:00:00 17.5 2 Norte 5 Oeste 0 905.5 0.2 62
2019-06-16 20:00:00 21.5 2 Oeste 14 Sudeste 0 905.3 -0.3 51
2019-06-16 19:00:00 24 3 Sur 17 Sur 0 905.2 -0.8 39
2019-06-16 18:00:00 26.3 6 Sur 20 Sudeste 0 905.3 -1.2 29
2019-06-16 17:00:00 26.6 6 Sudeste 25 Sudeste 0 905.6 -1.2 27
2019-06-16 16:00:00 25.8 5 Sudeste 23 Sur 0 906 -1.3 26
2019-06-16 15:00:00 25.3 8 Sudeste 23 Sur 0 906.5 -1.1 32
2019-06-16 14:00:00 24.9 7 Sudeste 27 Sur 0 906.8 -1.1 33
2019-06-16 13:00:00 23.4 9 Sudeste 34 Este 0 907.3 -1 35
2019-06-16 12:00:00 21.6 9 Sudeste 31 Este 0 907.6 -0.7 37
2019-06-16 11:00:00 20.2 8 Sudeste 29 Este 0 907.9 -0.6 36
2019-06-16 10:00:00 16.9 6 Este 11 Sudeste 0 908.3 -0.1 54
2019-06-16 09:00:00 11.2 2 Nordeste 6 Noroeste 0 908.3 0 82
2019-06-16 08:00:00 6.2 0 Calma 8 Noroeste 0 908.5 0.3 96
2019-06-16 07:00:00 6 2 Noroeste 14 Oeste 0 908.4 0 96
2019-06-16 06:00:00 5.9 0 Calma 9 Norte 0 908.3 -0.1 96
2019-06-16 05:00:00 6.5 0 Calma 16 Sudoeste 0 908.2 -0.2 95
2019-06-16 04:00:00 6.9 0 Calma 13 Nordeste 0 908.4 0 94
2019-06-16 03:00:00 7.5 0 Calma 14 Nordeste 0 908.4 0.2 92
2019-06-16 02:00:00 8 0 Calma 12 Noroeste 0 908.4 0.6 91
2019-06-16 01:00:00 8.7 2 Oeste 11 Noroeste 0 908.4 1.6 89
2019-06-16 00:00:00 9.5 0 Calma 8 Noroeste 0 908.2 2.5 87
2019-06-15 23:00:00 10.7 3 Noroeste 14 Oeste 0 907.8 2.9 83
2019-06-15 22:00:00 12 0 Calma 13 Sudoeste 0 906.8 2.3 77
2019-06-15 21:00:00 14.8 0 Calma 28 Noroeste 0 905.7 1.7 65
2019-06-15 20:00:00 16.9 8 Noroeste 21 Noroeste 0 904.9 0.8 50
2019-06-15 19:00:00 20.3 3 Sur 23 Este 0 904.5 0.4 49
2019-06-15 18:00:00 22.6 7 Sudeste 30 Este 0 904 -0.1 31
2019-06-15 17:00:00 23 4 Norte 24 Este 0 904.1 0 32
2019-06-15 16:00:00 22.7 6 Sudeste 26 Sudeste 0 904.1 0 31
2019-06-15 15:00:00 23.1 5 Este 25 Este 0 904.1 0 35
2019-06-15 14:00:00 21.4 7 Sudeste 23 Sudeste 0 904.1 0 43
2019-06-15 13:00:00 20.5 5 Sudeste 24 Sur 0 904.1 0.1 40
2019-06-15 12:00:00 19.5 8 Este 25 Nordeste 0 904.1 0 42
2019-06-15 11:00:00 20.2 6 Sudeste 18 Sur 0 904.1 0.4 56
2019-06-15 10:00:00 18.1 5 Este 17 Sur 0 904 0.8 72
2019-06-15 09:00:00 13.6 4 Norte 9 Norte 0 904.1 1 92
2019-06-15 08:00:00 10.9 3 Este 9 Este 0 903.7 0.9 97
2019-06-15 07:00:00 9.9 0 Calma 4 Norte 0 903.2 0.6 97
2019-06-15 06:00:00 10.5 0 Calma 6 Norte 0 903.1 0.4 97
2019-06-15 05:00:00 10.7 2 Noroeste 5 Noroeste 0 902.8 0.4 97
2019-06-15 04:00:00 11.3 3 Noroeste 6 Noroeste 0 902.6 1.5 97
2019-06-15 03:00:00 12.2 3 Oeste 8 Norte 0.2 902.7 0.7 97
2019-06-15 02:00:00 12.1 5 Nordeste 19 Sudeste 3.8 902.4 0.4 97
2019-06-15 01:00:00 11.4 3 Noroeste 10 Norte 0 901.1 -0.2 97
2019-06-15 00:00:00 10.9 2 Nordeste 5 Nordeste 0 902 1.4 96
2019-06-14 23:00:00 11.1 0 Calma 5 Noroeste 0 902 1.9 95
2019-06-14 22:00:00 12.3 2 Noroeste 8 Noroeste 0 901.3 1.4 93
2019-06-14 21:00:00 13.9 2 Noroeste 12 Noroeste 0 900.6 0.8 90
2019-06-14 20:00:00 15.5 2 Noroeste 15 Sudoeste 0 900.1 0 85
2019-06-14 19:00:00 17.1 0 Calma 17 Oeste 0 899.9 -0.1 79
2019-06-14 18:00:00 19.6 2 Oeste 7 Norte 0 899.8 -0.4 73
2019-06-14 17:00:00 18.1 3 Norte 8 Noroeste 0 900.1 1.8 74
2019-06-14 16:00:00 16.5 0 Calma 34 Norte 3.4 900 1.7 81
2019-06-14 15:00:00 17.9 7 Sudoeste 36 Este 0.2 900.2 1.5 63
2019-06-14 14:00:00 22 7 Sudeste 25 Sudeste 0 898.3 -1.3 45
2019-06-14 13:00:00 23.6 3 Este 9 Sur 0 898.3 -1.5 36
2019-06-14 12:00:00 20.5 3 Este 12 Sudeste 0 898.7 -0.1 47
2019-06-14 11:00:00 18.8 6 Este 22 Sur 0 899.6 0.3 50
2019-06-14 10:00:00 16.9 6 Sudeste 22 Sur 0 899.8 0.9 56
2019-06-14 09:00:00 15 8 Norte 24 Norte 0 898.8 -0.2 61
2019-06-14 08:00:00 11 3 Nordeste 11 Norte 0 899.3 -0.4 81
2019-06-14 07:00:00 10.8 4 Noroeste 22 Norte 0 898.9 -1.9 77
2019-06-14 06:00:00 10.7 6 Norte 18 Norte 0 899 -2 78
2019-06-14 05:00:00 10.3 4 Norte 17 Norte 0 899.7 -1.8 84
2019-06-14 04:00:00 10.4 0 Calma 14 Norte 0 900.8 -1.2 88
2019-06-14 03:00:00 11 2 Noroeste 15 Norte 0 901 -1 86
2019-06-14 02:00:00 11.3 3 Noroeste 16 Sudeste 0 901.5 -0.4 86
2019-06-14 01:00:00 12 2 Noroeste 7 Nordeste 0 902 1.2 83
2019-06-14 00:00:00 12.6 4 Noroeste 13 Norte 0 902 1.9 79
2019-06-13 23:00:00 12.5 4 Noroeste 14 Sudoeste 0 901.9 2.7 80
2019-06-13 22:00:00 13.4 3 Noroeste 8 Noroeste 0 900.8 1.4 76
2019-06-13 21:00:00 16.4 2 Noroeste 18 Sur 0 900.1 0.4 65
2019-06-13 20:00:00 18.5 2 Oeste 17 Este 0 899.2 -0.8 59
2019-06-13 19:00:00 20.2 4 Este 22 Este 0 899.4 -0.9 43
2019-06-13 18:00:00 21 7 Este 20 Este 0 899.7 -1.2 40
2019-06-13 17:00:00 20.7 7 Sudeste 31 Este 0 900 -1.4 40
2019-06-13 16:00:00 23 6 Sudeste 21 Sur 0 900.3 -1.5 35
2019-06-13 15:00:00 22.4 8 Sudeste 36 Sudeste 0 900.9 -1.2 37
2019-06-13 14:00:00 20.9 7 Sudeste 24 Sudeste 0 901.4 -1.1 37
2019-06-13 13:00:00 18.4 5 Sudeste 27 Sudeste 0 901.8 -0.2 40
2019-06-13 12:00:00 17.5 7 Sudeste 22 Sur 0 902.1 -0.1 44
2019-06-13 11:00:00 13.3 9 Sudeste 26 Este 0 902.5 0.4 52
2019-06-13 10:00:00 11.3 4 Sudeste 14 Este 0 902 0.2 71
2019-06-13 09:00:00 10.3 4 Norte 8 Norte 0 902.2 0.3 74
2019-06-13 08:00:00 7.6 0 Calma 7 Noroeste 0 902.1 -0.1 86
2019-06-13 07:00:00 6.3 2 Noroeste 8 Noroeste 0 901.8 -0.5 90
2019-06-13 06:00:00 5.6 3 Noroeste 7 Norte 0 901.9 -0.7 92
2019-06-13 05:00:00 5.3 0 Calma 5 Oeste 0 902.2 -0.3 93
2019-06-13 04:00:00 4.5 0 Calma 9 Noroeste 0 902.3 -0.5 93
2019-06-13 03:00:00 4.1 0 Calma 6 Oeste 0 902.6 -0.2 93
2019-06-13 02:00:00 4.7 2 Noroeste 8 Oeste 0 902.5 0 90
2019-06-13 01:00:00 5.2 2 Noroeste 9 Oeste 0 902.8 1.1 89
2019-06-13 00:00:00 5.9 0 Calma 6 Oeste 0 902.8 1.9 86
2019-06-12 23:00:00 7.2 0 Calma 7 Noroeste 0 902.5 1.9 81
2019-06-12 22:00:00 8.1 3 Noroeste 7 Noroeste 0 901.7 1.4 78
2019-06-12 21:00:00 10.2 2 Norte 7 Noroeste 0 900.9 0.1 70
2019-06-12 20:00:00 13.9 2 Sudoeste 23 Sur 0 900.6 -0.1 49
2019-06-12 19:00:00 16.9 7 Sudeste 26 Este 0 900.3 -0.5 31
2019-06-12 18:00:00 16.8 5 Sudeste 30 Sur 0 900.8 -0.1 34
2019-06-12 17:00:00 19.1 6 Sudeste 27 Este 0 900.7 -0.9 28
2019-06-12 16:00:00 15.2 8 Este 31 Este 0 900.8 -0.9 33
2019-06-12 15:00:00 14.9 10 Este 27 Este 0 900.9 -0.7 33
2019-06-12 14:00:00 15.1 5 Este 23 Este 0 901.6 0.1 40
2019-06-12 13:00:00 14.1 5 Sudeste 21 Sur 0 901.7 0.4 38
2019-06-12 12:00:00 14.7 6 Sudeste 27 Sur 0 901.6 0.1 42
2019-06-12 11:00:00 13.9 7 Sudeste 24 Este 0 901.5 -0.1 42
2019-06-12 10:00:00 11.3 6 Sudeste 23 Sur 0 901.3 0 56
2019-06-12 09:00:00 6.9 2 Este 5 Norte 0 901.5 0.5 90
2019-06-12 08:00:00 1.5 0 Calma 3 Este 0 901.6 0.6 98
2019-06-12 07:00:00 1.3 0 Calma 13 Norte 0 901.3 0.3 98
2019-06-12 06:00:00 1.2 3 Noroeste 13 Nordeste 0 901 -0.1 98
2019-06-12 05:00:00 1.4 0 Calma 14 Sudeste 0 901 -0.4 97
2019-06-12 04:00:00 1.9 0 Calma 17 Norte 0 901 -0.5 97
2019-06-12 03:00:00 2.3 3 Noroeste 12 Norte 0 901.1 -0.5 97
2019-06-12 02:00:00 2.6 0 Calma 14 Oeste 0 901.4 -0.1 97
2019-06-12 01:00:00 3.2 3 Noroeste 13 Nordeste 0 901.5 0.5 96
2019-06-12 00:00:00 3.8 0 Calma 8 Norte 0 901.6 1.1 96
2019-06-11 23:00:00 4.4 2 Norte 14 Noroeste 0 901.5 1.4 94
2019-06-11 22:00:00 5.7 2 Noroeste 15 Norte 0 901 1.1 90
2019-06-11 21:00:00 7.3 6 Noroeste 18 Noroeste 0 900.5 0.8 86
2019-06-11 20:00:00 9.4 2 Oeste 9 Noroeste 0 900.1 0.1 83
2019-06-11 19:00:00 10.1 2 Sudeste 10 Norte 0 899.9 0.6 82
2019-06-11 18:00:00 9.6 2 Noroeste 8 Sudoeste 0.2 899.7 -0.1 86
2019-06-11 17:00:00 9.5 3 Norte 28 Noroeste 0.6 900 1.1 84
2019-06-11 16:00:00 11.5 2 Este 11 Sudeste 0 899.3 0.4 72
2019-06-11 15:00:00 10.2 3 Sur 16 Noroeste 2.6 899.8 0.8 85
2019-06-11 14:00:00 11.7 5 Sudeste 14 Sudeste 1 898.9 -0.3 78
2019-06-11 13:00:00 11 6 Sudeste 15 Sur 0 898.9 -0.1 76
2019-06-11 12:00:00 10.8 4 Sudeste 13 Sur 0.6 899 0.2 80
2019-06-11 11:00:00 9.1 4 Sur 10 Sur 1 899.2 0.5 86
2019-06-11 10:00:00 8.6 2 Sudoeste 20 Este 0.8 899 0.1 89
2019-06-11 09:00:00 8.4 4 Sudeste 9 Este 0 898.8 -0.4 92
2019-06-11 08:00:00 7.8 0 Calma 4 Sudeste 0.2 898.7 -0.7 95
2019-06-11 07:00:00 7.3 0 Calma 11 Norte 0 898.9 -1 95
2019-06-11 06:00:00 7.3 0 Calma 5 Sur 0.2 899.2 -1.8 95
2019-06-11 05:00:00 7.3 2 Noroeste 10 Noroeste 0.2 899.4 -2.1 94
2019-06-11 04:00:00 7.7 5 Norte 15 Noroeste 0.4 899.9 -2 93
2019-06-11 03:00:00 8 0 Calma 14 Este 0.4 901 0.4 90
2019-06-11 02:00:00 8.7 0 Calma 15 Norte 1.6 901.5 1.3 89
2019-06-11 01:00:00 10 5 Norte 34 Norte 0.2 901.9 2.1 75
2019-06-11 00:00:00 12.6 3 Norte 15 Noroeste 0 900.6 1.5 58
2019-06-10 23:00:00 13.2 5 Sur 32 Noroeste 0 900.2 1.3 51
2019-06-10 22:00:00 13.2 5 Norte 15 Noroeste 0 899.8 1.2 53
2019-06-10 21:00:00 14.5 6 Noroeste 22 Noroeste 0 899.1 0.4 52
2019-06-10 20:00:00 18.1 5 Oeste 25 Este 0 898.9 -0.1 38
2019-06-10 19:00:00 20.1 6 Sudeste 28 Sur 0 898.6 -1.2 27
2019-06-10 18:00:00 19.6 6 Sudeste 29 Este 0 898.7 -1.6 39
2019-06-10 17:00:00 18.4 9 Sudeste 27 Este 0 899 -1.5 43
2019-06-10 16:00:00 17.1 8 Noroeste 27 Noroeste 0 899.8 -0.8 67
2019-06-10 15:00:00 16.3 6 Noroeste 21 Norte 0 900.3 -0.6 74
2019-06-10 14:00:00 18.2 9 Sudeste 31 Este 0 900.5 -0.6 48
2019-06-10 13:00:00 18.8 8 Sudeste 29 Este 0 900.6 -0.8 50
2019-06-10 12:00:00 19.3 10 Sudeste 31 Sudeste 0 900.9 -1.1 49
2019-06-10 11:00:00 19.6 8 Sudeste 24 Sudeste 0 901.1 -1.3 52
2019-06-10 10:00:00 15.9 0 Calma 11 Norte 0 901.4 -1 74
2019-06-10 09:00:00 12.2 3 Norte 11 Norte 0 902 -0.4 90
2019-06-10 08:00:00 10.8 2 Noroeste 15 Norte 0.2 902.4 -0.3 94
2019-06-10 07:00:00 10.7 7 Norte 17 Norte 0 902.4 -0.7 93
2019-06-10 06:00:00 11.1 4 Noroeste 28 Norte 0.6 902.4 -0.3 92
2019-06-10 05:00:00 11.4 5 Noroeste 28 Noroeste 0.8 902.7 -0.3 91
2019-06-10 04:00:00 13.8 7 Norte 25 Norte 0 903.1 -0.3 65
2019-06-10 03:00:00 13.2 4 Noroeste 17 Noroeste 0 902.7 -0.7 75
2019-06-10 02:00:00 12.5 2 Noroeste 7 Noroeste 0 903 -0.2 80
2019-06-10 01:00:00 12.8 2 Noroeste 5 Este 0 903.4 0.7 77
2019-06-10 00:00:00 14.6 0 Calma 21 Noroeste 0 903.4 1.4 68
2019-06-09 23:00:00 16.6 7 Noroeste 35 Norte 0 903.2 1.7 57
2019-06-09 22:00:00 17.4 12 Noroeste 37 Noroeste 0 902.7 1.4 53
2019-06-09 21:00:00 18.5 8 Noroeste 27 Noroeste 0 902 0.8 49
2019-06-09 20:00:00 18.9 3 Noroeste 9 Oeste 0 901.5 0 58
2019-06-09 19:00:00 22.5 4 Sur 18 Sur 0 901.3 -0.9 35
2019-06-09 18:00:00 25 5 Sudeste 23 Este 0 901.2 -1.5 31
2019-06-09 17:00:00 25.1 5 Sudeste 17 Sudeste 0 901.5 -1.7 30
2019-06-09 16:00:00 24.8 3 Este 17 Este 0 902.2 -1.3 33
2019-06-09 15:00:00 23.4 7 Este 24 Este 0 902.7 -1 33
2019-06-09 14:00:00 23.8 7 Sudeste 25 Sur 0 903.2 -0.8 39
2019-06-09 13:00:00 23.8 8 Sudeste 26 Este 0 903.5 -1.1 38
2019-06-09 12:00:00 21.5 7 Sudeste 30 Sudeste 0 903.7 -1.5 39
2019-06-09 11:00:00 21.7 8 Sudeste 29 Este 0 904 -1.5 40
2019-06-09 10:00:00 19.3 4 Este 13 Sudeste 0 904.6 -0.9 49
2019-06-09 09:00:00 14.7 2 Este 12 Norte 0 905.2 -0.4 69
2019-06-09 08:00:00 12.2 4 Norte 14 Oeste 0 905.5 -1 84
2019-06-09 07:00:00 11.2 5 Norte 12 Norte 0 905.5 -1.6 84
2019-06-09 06:00:00 11.2 0 Calma 15 Norte 0 905.6 -2.3 82
2019-06-09 05:00:00 10.7 4 Norte 11 Norte 0 906.5 -1.7 84
2019-06-09 04:00:00 10.7 4 Norte 9 Norte 0 907.1 -1.7 85
2019-06-09 03:00:00 11.1 2 Noroeste 16 Norte 0 907.9 -0.7 81
2019-06-09 02:00:00 11.5 2 Noroeste 19 Noroeste 0 908.2 -0.5 80
2019-06-09 01:00:00 11.8 5 Noroeste 9 Noroeste 0 908.8 0.8 78
2019-06-09 00:00:00 14 2 Noroeste 26 Este 0 908.6 1.2 66
2019-06-08 23:00:00 15.5 6 Sudeste 23 Este 0 908.7 1.5 56
2019-06-08 22:00:00 14.3 3 Nordeste 9 Oeste 0 908 0.9 70
2019-06-08 21:00:00 16 2 Noroeste 6 Sudeste 0 907.4 0.2 69
2019-06-08 20:00:00 18.5 0 Calma 18 Sur 0 907.2 -0.1 56
2019-06-08 19:00:00 20.5 4 Sudeste 22 Este 0 907.1 -0.9 37
2019-06-08 18:00:00 21.6 8 Este 28 Sudeste 0 907.2 -1.4 32
2019-06-08 17:00:00 23.5 9 Sudeste 28 Sur 0 907.3 -2 29
2019-06-08 16:00:00 21.6 5 Este 25 Sur 0 908 -2 29
2019-06-08 15:00:00 22.8 13 Sudeste 30 Nordeste 0 908.6 -1.5 24
2019-06-08 14:00:00 22.1 7 Sudeste 24 Este 0 909.3 -0.9 26
2019-06-08 13:00:00 21.1 7 Este 22 Sur 0 910 -0.5 31
2019-06-08 12:00:00 19.8 6 Sudeste 19 Sudeste 0 910.1 -0.5 33
2019-06-08 11:00:00 16 4 Sudeste 15 Este 0 910.2 -0.6 38
2019-06-08 10:00:00 12.4 2 Sudeste 5 Este 0 910.5 -0.1 53
2019-06-08 09:00:00 8.6 3 Norte 6 Norte 0 910.6 0.2 75
2019-06-08 08:00:00 3.7 0 Calma 11 Noroeste 0 910.8 1 95
2019-06-08 07:00:00 3.3 2 Noroeste 9 Sudoeste 0 910.6 1 95
2019-06-08 06:00:00 3.4 2 Noroeste 12 Norte 0 910.4 0.8 94
2019-06-08 05:00:00 3.6 0 Calma 14 Sudoeste 0 909.8 0.4 94
2019-06-08 04:00:00 4 0 Calma 8 Noroeste 0 909.6 0.3 93
2019-06-08 03:00:00 4.6 2 Norte 15 Norte 0 909.6 0.7 92
2019-06-08 02:00:00 4.9 2 Noroeste 7 Noroeste 0 909.4 1 92
2019-06-08 01:00:00 5.7 0 Calma 14 Nordeste 0 909.3 2 88
2019-06-08 00:00:00 6.4 0 Calma 12 Noroeste 0 908.9 3 88
2019-06-07 23:00:00 6.9 3 Noroeste 6 Noroeste 0 908.4 3.4 89
2019-06-07 22:00:00 8.1 3 Noroeste 16 Nordeste 0 907.3 3 85
2019-06-07 21:00:00 9.9 2 Noroeste 5 Noroeste 0 905.9 2.5 76
2019-06-07 20:00:00 13.1 3 Sudoeste 15 Sudeste 0 905 2 61
2019-06-07 19:00:00 17.2 6 Sur 23 Este 0 904.3 1.5 34
2019-06-07 18:00:00 18.9 7 Sudeste 22 Este 0 903.4 1 31
2019-06-07 17:00:00 19.3 6 Sudeste 22 Este 0 903 1.1 32
2019-06-07 16:00:00 17.7 6 Sudeste 26 Sur 0 902.8 1.4 38
2019-06-07 15:00:00 16.1 3 Oeste 22 Este 0 902.4 1.3 58
2019-06-07 14:00:00 16.8 5 Sudeste 22 Este 0 901.9 0.8 44
2019-06-07 13:00:00 16.6 5 Sudeste 24 Este 0 901.4 1.9 45
2019-06-07 12:00:00 15.2 8 Sudeste 25 Sur 0 901.1 3.2 53
2019-06-07 11:00:00 11.8 5 Sudeste 50 Este 2 901.1 3.6 81
2019-06-07 10:00:00 10.6 22 Este 59 Este 1.4 899.5 2.5 84
2019-06-07 09:00:00 10.4 24 Este 72 Este 4 897.9 0.5 89
2019-06-07 08:00:00 10.6 8 Sudeste 36 Este 0.6 897.5 0.1 84
2019-06-07 07:00:00 12.6 17 Este 39 Este 0 897 -0.7 63
2019-06-07 06:00:00 12.9 13 Este 41 Este 0 897.4 -0.6 63
2019-06-07 05:00:00 13.2 17 Este 37 Este 0 897.4 -0.7 60
2019-06-07 04:00:00 13.4 9 Sudeste 35 Este 0 897.7 -0.8 59
2019-06-07 03:00:00 13.7 6 Sudeste 27 Este 0 898 -0.9 58
2019-06-07 02:00:00 13.9 5 Sudeste 25 Sur 0 898.1 -0.5 53
2019-06-07 01:00:00 14.4 5 Sudeste 35 Este 0 898.5 0.3 49
2019-06-07 00:00:00 14.7 5 Sudeste 27 Este 0 898.9 0.9 48
2019-06-06 23:00:00 14.9 7 Sudeste 35 Sur 0 898.6 0.8 47
2019-06-06 22:00:00 15.1 9 Este 35 Este 0 898.2 0.3 49
2019-06-06 21:00:00 15.7 7 Sudeste 38 Este 0 898 -0.4 52
2019-06-06 20:00:00 16.4 9 Sudeste 33 Este 0 897.8 -0.9 50
2019-06-06 19:00:00 17 6 Este 37 Este 0 897.9 -1.4 46
2019-06-06 18:00:00 17 10 Este 42 Este 0 898.4 -1.7 37
2019-06-06 17:00:00 18.6 15 Este 49 Este 0 898.7 -2 32
2019-06-06 16:00:00 19.8 12 Sudeste 43 Este 0 899.3 -1.7 30
2019-06-06 15:00:00 17.3 8 Sudeste 41 Este 0 900.1 -1.2 39
2019-06-06 14:00:00 17.3 13 Este 39 Este 0 900.7 -0.6 39
2019-06-06 13:00:00 18.2 10 Sudeste 35 Sudeste 0 901 -0.5 43
2019-06-06 12:00:00 17.4 9 Sudeste 28 Sudeste 0 901.3 -0.5 46
2019-06-06 11:00:00 15.2 7 Sudeste 22 Sur 0 901.3 -0.5 46
2019-06-06 10:00:00 10.9 2 Sudeste 15 Sudoeste 0 901.5 -0.4 69
2019-06-06 09:00:00 8.1 0 Calma 7 Norte 0 901.8 0.2 84
2019-06-06 08:00:00 6.4 3 Noroeste 10 Noroeste 0 901.8 0.3 93
2019-06-06 07:00:00 5.3 2 Noroeste 9 Noroeste 0 901.9 0.8 95
2019-06-06 06:00:00 5.1 0 Calma 15 Oeste 0 901.6 0.6 95
2019-06-06 05:00:00 5.4 0 Calma 14 Sudeste 0 901.5 0.5 94
2019-06-06 04:00:00 5.6 0 Calma 15 Sudoeste 0 901.1 0 93
2019-06-06 03:00:00 6.4 0 Calma 13 Norte 0 901 0 91
2019-06-06 02:00:00 6.2 3 Noroeste 19 Noroeste 0 901 0.3 91
2019-06-06 01:00:00 6.1 7 Norte 19 Norte 0 901.1 0.9 90
2019-06-06 00:00:00 6.7 0 Calma 25 Nordeste 0 901 1.6 85
2019-06-05 23:00:00 7.6 5 Norte 15 Norte 0 900.7 2 81
2019-06-05 22:00:00 8.5 5 Norte 18 Norte 0 900.2 2 79
2019-06-05 21:00:00 9.9 9 Noroeste 25 Noroeste 0 899.4 1.9 71
2019-06-05 20:00:00 12.3 9 Norte 28 Noroeste 0 898.7 1.1 59
2019-06-05 19:00:00 12.4 9 Noroeste 24 Noroeste 0 898.2 1.3 59
2019-06-05 18:00:00 15.5 8 Noroeste 34 Noroeste 0 897.5 1.6 53
2019-06-05 17:00:00 12.7 4 Oeste 33 Noroeste 0 897.6 1.4 69
2019-06-05 16:00:00 13.8 3 Oeste 16 Sudeste 1.4 896.9 0.8 76
2019-06-05 15:00:00 13.7 4 Sudeste 18 Este 0 895.9 0.2 74
2019-06-05 14:00:00 13.8 2 Sudoeste 14 Noroeste 0 896.2 1.6 73
2019-06-05 13:00:00 10.2 0 Calma 26 Norte 5.2 896.1 2.5 93
2019-06-05 12:00:00 8.8 12 Noroeste 32 Noroeste 8.4 895.7 1.3 93
2019-06-05 11:00:00 12.5 6 Norte 35 Noroeste 0.6 894.6 0.2 79
2019-06-05 10:00:00 14.2 8 Sudeste 27 Este 0 893.6 -1 61
2019-06-05 09:00:00 14 6 Sudeste -- -- -- 894.4 -0.4 57
2019-06-05 08:00:00 12.6 5 Sur 21 Este 0 894.4 -0.9 64
2019-06-05 07:00:00 11 0 Calma 9 Norte 0 894.6 -1.4 89
2019-06-05 06:00:00 10.9 3 Norte 13 Nordeste 0 894.8 -2.2 90
2019-06-05 05:00:00 11.5 2 Oeste 23 Norte 0 895.3 -2.2 87
2019-06-05 04:00:00 12.8 3 Norte 16 Noroeste 0 896 -1.7 86
2019-06-05 03:00:00 13.6 4 Noroeste 25 Norte 0 897 -0.3 85
2019-06-05 02:00:00 13.8 12 Norte 24 Noroeste 0.4 897.5 0.9 81
2019-06-05 01:00:00 16.4 3 Norte 15 Norte 0 897.7 1.5 67
2019-06-05 00:00:00 17.5 7 Norte 24 Noroeste 0 897.3 1.3 61
2019-06-04 23:00:00 21.4 3 Sur 25 Este 0 896.6 0.5 32
2019-06-04 22:00:00 22.2 6 Sudeste 25 Este 0 896.2 -0.3 29
2019-06-04 21:00:00 23.6 5 Sudeste 25 Este 0 896 -0.8 29
2019-06-04 20:00:00 24.3 4 Este 31 Este 0 896.1 -1.2 30
2019-06-04 19:00:00 27.1 9 Sudeste 40 Este 0 896.5 -1.7 23
2019-06-04 18:00:00 27.7 11 Sudeste 43 Sudeste 0 896.8 -2.2 22
2019-06-04 17:00:00 28.8 14 Sudeste 67 Este 0 897.3 -2.2 19
2019-06-04 16:00:00 28.4 11 Sudeste 41 Este 0 898.2 -1.9 21
2019-06-04 15:00:00 28 12 Sudeste 38 Este 0 899 -1.3 22
2019-06-04 14:00:00 27.4 10 Sudeste 34 Este 0 899.5 -1.1 24
2019-06-04 13:00:00 26.5 10 Sudeste 34 Sur 0 900.1 -0.9 29
2019-06-04 12:00:00 25 10 Sudeste 31 Sur 0 900.3 -0.9 34
2019-06-04 11:00:00 22.8 10 Este 30 Sur 0 900.6 -0.7 39
2019-06-04 10:00:00 19.3 2 Nordeste 5 Nordeste 0 901 -0.6 58
2019-06-04 09:00:00 15.8 0 Calma 4 Este 0 901.2 -0.5 77
2019-06-04 08:00:00 13.8 2 Noroeste 8 Noroeste 0 901.3 -0.8 78
2019-06-04 07:00:00 11.6 3 Noroeste 10 Norte 0 901.6 -0.4 85
2019-06-04 06:00:00 10.8 3 Noroeste 9 Norte 0 901.7 -0.9 86
2019-06-04 05:00:00 11.3 2 Noroeste 12 Norte 0 902.1 -1.1 84
2019-06-04 04:00:00 11.8 3 Noroeste 11 Norte 0 902 -1.9 83
2019-06-04 03:00:00 12.3 0 Calma 15 Sudoeste 0 902.6 -1.6 82
2019-06-04 02:00:00 13.1 0 Calma 14 Oeste 0 903.2 -1.1 79
2019-06-04 01:00:00 13.8 0 Calma 11 Noroeste 0 903.9 0 76
2019-06-04 00:00:00 14.3 0 Calma 14 Sudoeste 0 904.2 0.6 73
2019-06-03 23:00:00 15.5 2 Noroeste 7 Noroeste 0 904.3 1 68
2019-06-03 22:00:00 17 2 Noroeste 13 Sudoeste 0 903.9 0.7 64
2019-06-03 21:00:00 20.6 5 Sudeste 16 Sudeste 0 903.6 0.3 47
2019-06-03 20:00:00 22.9 0 Calma 15 Sur 0 903.3 -0.3 39
2019-06-03 19:00:00 26.4 8 Este 29 Sur 0 903.2 -0.7 26
2019-06-03 18:00:00 28.3 8 Este 28 Sudeste 0 903.3 -1.1 25
2019-06-03 17:00:00 28.1 11 Sudeste 26 Este 0 903.6 -1.2 25
2019-06-03 16:00:00 28.3 8 Sudeste 24 Sur 0 903.9 -1.4 26
2019-06-03 15:00:00 29.4 8 Sudeste 24 Sudeste 0 904.4 -1.5 27
2019-06-03 14:00:00 27.7 8 Sudeste 26 Sur 0 904.8 -0.9 32
2019-06-03 13:00:00 23.8 5 Sudeste 24 Este 0 905.3 -0.5 40
2019-06-03 12:00:00 23.5 8 Sudeste 24 Sudeste 0 905.9 -0.1 45
2019-06-03 11:00:00 21.8 4 Sudeste 25 Sudeste 0 905.7 -0.6 51
2019-06-03 10:00:00 20.1 0 Calma 11 Noroeste 0 905.8 -0.3 53
2019-06-03 09:00:00 16.9 4 Norte 14 Nordeste 0 906 -0.3 67
2019-06-03 08:00:00 13.5 3 Noroeste 9 Noroeste 0 906.3 -0.2 84
2019-06-03 07:00:00 13.7 2 Sudoeste 17 Nordeste 0 906.1 -1 79
2019-06-03 06:00:00 13.8 0 Calma 18 Norte 0 906.3 -1.1 80
2019-06-03 05:00:00 14 6 Norte 19 Norte 0 906.5 -1.3 77
2019-06-03 04:00:00 13.8 3 Noroeste 14 Noroeste 0 907.1 -1 82
2019-06-03 03:00:00 14.8 8 Norte 22 Norte 0 907.4 0.1 76
2019-06-03 02:00:00 14.6 7 Noroeste 21 Noroeste 0 907.8 0.7 80
2019-06-03 01:00:00 13.3 2 Norte 5 Noroeste 0 908.1 1.5 75
2019-06-03 00:00:00 14.6 0 Calma 6 Noroeste 0 907.3 1.4 70
2019-06-02 23:00:00 16.1 3 Noroeste 8 Norte 0 907.1 1.8 66
2019-06-02 22:00:00 17.9 0 Calma 8 Norte 0 906.6 1.9 61
2019-06-02 21:00:00 20.9 0 Calma 14 Oeste 0 905.9 1.3 53
2019-06-02 20:00:00 24.5 3 Oeste 23 Este 0 905.3 0.6 38
2019-06-02 19:00:00 27 6 Sudeste 30 Este 0 904.7 -0.3 26
2019-06-02 18:00:00 30.2 8 Sudeste 32 Este 0 904.6 -0.8 23
2019-06-02 17:00:00 30.3 8 Sudeste 30 Sur 0 904.7 -1.3 24
2019-06-02 16:00:00 30.1 9 Sudeste 32 Sur 0 905 -1.5 24
2019-06-02 15:00:00 29.9 6 Sudeste 27 Sur 0 905.4 -1.6 26
2019-06-02 14:00:00 29.4 8 Sudeste 25 Sur 0 906 -1.2 27
2019-06-02 13:00:00 28.2 8 Sudeste 27 Sur 0 906.5 -1.1 29
2019-06-02 12:00:00 26.3 8 Sudeste 29 Este 0 907 -1.1 31
2019-06-02 11:00:00 24.6 9 Este 24 Este 0 907.2 -1.1 33
2019-06-02 10:00:00 20.1 3 Norte 6 Norte 0 907.6 -0.8 50
2019-06-02 09:00:00 14.3 3 Norte 7 Norte 0 908.1 -0.3 71
2019-06-02 08:00:00 9.1 0 Calma 7 Noroeste 0 908.3 -0.2 90
2019-06-02 07:00:00 9.1 3 Oeste 13 Norte 0 908.4 -0.4 87
2019-06-02 06:00:00 8.9 0 Calma 8 Noroeste 0 908.4 -0.8 88
2019-06-02 05:00:00 9.5 2 Noroeste 11 Noroeste 0 908.5 -0.9 86
2019-06-02 04:00:00 9.9 2 Noroeste 10 Oeste 0 908.8 -0.5 85
2019-06-02 03:00:00 10.3 0 Calma 6 Noroeste 0 909.2 0 84
2019-06-02 02:00:00 11.2 2 Norte 4 Norte 0 909.4 0.3 81
2019-06-02 01:00:00 12.3 2 Norte 14 Nordeste 0 909.3 1.1 76
2019-06-02 00:00:00 13.7 2 Noroeste 9 Noroeste 0 909.2 1.7 71
2019-06-01 23:00:00 15.5 2 Noroeste 16 Oeste 0 909.1 1.9 65
2019-06-01 22:00:00 17.6 3 Norte 8 Norte 0 908.2 1.3 58
2019-06-01 21:00:00 20.7 3 Norte 19 Sur 0 907.5 0.6 51
2019-06-01 20:00:00 24.1 7 Sudeste 27 Este 0 907.2 0.2 31
2019-06-01 19:00:00 26.6 5 Sudeste 28 Sudeste 0 906.9 -0.6 27
2019-06-01 18:00:00 28.7 5 Sudeste 27 Sudeste 0 906.9 -1.1 26
2019-06-01 17:00:00 28.6 7 Sudeste 30 Este 0 907 -1.6 28
2019-06-01 16:00:00 28.5 7 Sudeste 26 Sur 0 907.5 -1.7 30
2019-06-01 15:00:00 28.2 8 Sudeste 26 Sur 0 908 -1.6 31
2019-06-01 14:00:00 27.1 8 Sudeste 28 Sudeste 0 908.6 -1.3 31
2019-06-01 13:00:00 25.9 9 Sudeste 32 Este 0 909.2 -1.1 34
2019-06-01 12:00:00 24.3 8 Sudeste 31 Sudeste 0 909.6 -1 36
2019-06-01 11:00:00 22.9 7 Sudeste 23 Este 0 909.9 -0.9 41
2019-06-01 10:00:00 19.8 3 Sudeste 8 Este 0 910.3 -0.4 47
2019-06-01 09:00:00 13.7 2 Norte 6 Norte 0 910.6 0.1 76
2019-06-01 08:00:00 8.5 0 Calma 7 Noroeste 0 910.8 0.5 93
2019-06-01 07:00:00 8.2 3 Noroeste 9 Noroeste 0 910.7 0.3 93
2019-06-01 06:00:00 8.3 0 Calma 6 Noroeste 0 910.5 -0.2 92
2019-06-01 05:00:00 8.7 2 Noroeste 8 Noroeste 0 910.3 -0.6 90
2019-06-01 04:00:00 9.2 0 Calma 6 Noroeste 0 910.4 -0.7 90
2019-06-01 03:00:00 9.6 2 Oeste 5 Noroeste 0 910.7 -0.5 88
2019-06-01 02:00:00 10.3 0 Calma 15 Sudoeste 0 910.9 -0.2 86
2019-06-01 01:00:00 11.2 0 Calma 6 Norte 0 911.1 0.7 82
2019-06-01 00:00:00 12.4 2 Noroeste 5 Norte 0 911.2 1.5 78
2019-05-31 23:00:00 13.9 2 Noroeste 9 Noroeste 0 911.1 1.9 73
2019-05-31 22:00:00 15.4 3 Noroeste 10 Noroeste 0 910.4 1.5 68
2019-05-31 21:00:00 17.7 3 Noroeste 14 Sudeste 0 909.7 0.9 60
2019-05-31 20:00:00 22 4 Sur 19 Sur 0 909.2 0.3 39
2019-05-31 19:00:00 24.7 5 Sudeste 23 Sur 0 908.9 -0.2 33
2019-05-31 18:00:00 27.1 8 Sudeste 31 Sur 0 908.8 -0.7 29
2019-05-31 17:00:00 26.8 9 Sudeste 26 Sur 0 908.9 -1 29
2019-05-31 16:00:00 27 7 Sudeste 30 Sudeste 0 909.1 -1 28
2019-05-31 15:00:00 26.1 9 Sudeste 35 Sudeste 0 909.5 -0.8 28
2019-05-31 14:00:00 26 8 Sudeste 37 Este 0 909.9 -0.9 27
2019-05-31 13:00:00 24.4 9 Sudeste 38 Este 0 910.1 -1.1 30
2019-05-31 12:00:00 23.4 8 Sudeste 27 Sudeste 0 910.3 -1.2 30
2019-05-31 11:00:00 21.7 6 Sudeste 19 Este 0 910.8 -1 31
2019-05-31 10:00:00 18.2 7 Este 18 Este 0 911.2 -0.7 34
2019-05-31 09:00:00 11.8 0 Calma 14 Nordeste 0 911.5 -0.3 63
2019-05-31 08:00:00 6.2 4 Norte 14 Nordeste 0 911.8 0 77
2019-05-31 07:00:00 5.8 0 Calma 13 Nordeste 0 911.9 0 79
2019-05-31 06:00:00 5.9 2 Noroeste 14 Noroeste 0 911.8 -0.5 80
2019-05-31 05:00:00 6 0 Calma 14 Nordeste 0 911.8 -0.8 84
2019-05-31 04:00:00 6.6 0 Calma 14 Nordeste 0 911.9 -0.8 84
2019-05-31 03:00:00 7.6 0 Calma 14 Nordeste 0 912.3 -0.3 78
2019-05-31 02:00:00 8.9 2 Noroeste 15 Este 0 912.6 0 75
2019-05-31 01:00:00 11.1 4 Noroeste 20 Norte 0 912.7 0.6 68
2019-05-31 00:00:00 12.9 5 Noroeste 18 Norte 0 912.6 1.1 61
2019-05-30 23:00:00 14.4 3 Norte 23 Noroeste 0 912.6 1.9 58
2019-05-30 22:00:00 16.1 9 Noroeste 23 Noroeste 0 912.1 1.8 52
2019-05-30 21:00:00 18.4 10 Noroeste 22 Noroeste 0 911.5 1.1 41
2019-05-30 20:00:00 20.7 11 Noroeste 23 Noroeste 0 910.7 0.2 30
2019-05-30 19:00:00 22.9 8 Noroeste 25 Noroeste 0 910.3 -0.2 24
2019-05-30 18:00:00 25 8 Noroeste 33 Noroeste 0 910.4 -0.2 20
2019-05-30 17:00:00 25.2 12 Noroeste 34 Noroeste 0 910.5 -0.1 21
2019-05-30 16:00:00 24.9 14 Noroeste 35 Noroeste 0 910.5 -0.1 21
2019-05-30 15:00:00 25.2 12 Noroeste 35 Noroeste 0 910.6 -0.2 22
2019-05-30 14:00:00 24 17 Noroeste 39 Noroeste 0 910.6 -0.2 17
2019-05-30 13:00:00 23.4 15 Noroeste 36 Norte 0 910.6 -0.3 20
2019-05-30 12:00:00 22.5 16 Noroeste 37 Noroeste 0 910.8 -0.2 22
2019-05-30 11:00:00 21.3 12 Noroeste 28 Noroeste 0 910.8 -0.3 27
2019-05-30 10:00:00 17.3 5 Este 24 Este 0 910.9 0 45
2019-05-30 09:00:00 12 2 Nordeste 17 Nordeste 0 911 0.5 66
2019-05-30 08:00:00 6.3 0 Calma 15 Nordeste 0 911.1 0.8 83
2019-05-30 07:00:00 6.6 2 Noroeste 14 Nordeste 0 910.9 0.6 80
2019-05-30 06:00:00 7.7 2 Este 19 Norte 0 910.5 0 71
2019-05-30 05:00:00 8.8 2 Sur 23 Norte 0 910.3 -1 68
2019-05-30 04:00:00 10.5 14 Norte 30 Norte 0 910.3 -1.1 57
2019-05-30 03:00:00 10.1 16 Norte 35 Norte 0 910.5 -0.8 58
2019-05-30 02:00:00 9.9 14 Norte 33 Norte 0 911.3 0.1 60
2019-05-30 01:00:00 10.3 15 Norte 35 Norte 0 911.4 0.8 58
2019-05-30 00:00:00 10.7 12 Norte 26 Noroeste 0 911.3 0.9 57
2019-05-29 23:00:00 13 9 Noroeste 40 Noroeste 0 911.2 1.3 46
2019-05-29 22:00:00 12.8 10 Noroeste 32 Noroeste 0 910.6 1.2 47
2019-05-29 21:00:00 13.1 9 Noroeste 32 Noroeste 0 910.4 1.6 45
2019-05-29 20:00:00 14 14 Noroeste 33 Oeste 0 909.9 1.7 43
2019-05-29 19:00:00 15.2 11 Noroeste 40 Noroeste 0 909.4 1.1 41
2019-05-29 18:00:00 16.8 13 Noroeste 46 Noroeste 0 908.8 0.4 36
2019-05-29 17:00:00 17.5 13 Noroeste 36 Noroeste 0 908.2 0 32
2019-05-29 16:00:00 18.4 15 Noroeste 42 Noroeste 0 908.3 0.1 32
2019-05-29 15:00:00 17.6 16 Noroeste 40 Noroeste 0 908.4 0.5 31
2019-05-29 14:00:00 17.1 18 Noroeste 43 Noroeste 0 908.2 0.7 32
2019-05-29 13:00:00 17.8 13 Noroeste 41 Noroeste 0 908.2 1 30
2019-05-29 12:00:00 16.5 13 Noroeste 40 Noroeste 0 907.9 0.4 30
2019-05-29 11:00:00 14.6 18 Noroeste 43 Norte 0 907.5 0.1 25
2019-05-29 10:00:00 13.9 14 Noroeste 31 Noroeste 0 907.2 0.2 30
2019-05-29 09:00:00 12.1 13 Noroeste 34 Noroeste 0 907.5 1.1 36
2019-05-29 08:00:00 8.3 10 Noroeste 26 Noroeste 0 907.4 1.4 52
2019-05-29 07:00:00 8.1 8 Noroeste 35 Oeste 0 907 1 51
2019-05-29 06:00:00 7 7 Noroeste 17 Noroeste 0 906.4 0.5 59
2019-05-29 05:00:00 6.8 5 Noroeste 14 Norte 0 906 0.4 64
2019-05-29 04:00:00 8 4 Noroeste 18 Noroeste 0 906 0.5 54
2019-05-29 03:00:00 8.7 8 Noroeste 24 Noroeste 0 905.9 0.5 49
2019-05-29 02:00:00 9.5 10 Noroeste 34 Noroeste 0 905.6 0.3 44
2019-05-29 01:00:00 9.4 9 Noroeste 28 Noroeste 0 905.5 0.6 46
2019-05-29 00:00:00 10.1 10 Noroeste 30 Oeste 0 905.4 0.7 42
2019-05-28 23:00:00 10.4 9 Noroeste 27 Noroeste 0 905.3 1.3 46
2019-05-28 22:00:00 10.5 10 Noroeste 33 Noroeste 0 904.9 1.4 43
2019-05-28 21:00:00 11.5 16 Noroeste 39 Norte 0 904.7 2.3 41
2019-05-28 20:00:00 13 13 Noroeste 36 Noroeste 0 904 1.5 38
2019-05-28 19:00:00 13.9 17 Noroeste 47 Noroeste 0 903.5 1.4 36
2019-05-28 18:00:00 17.3 18 Noroeste 39 Norte 0 902.4 0.9 31
2019-05-28 17:00:00 16.9 16 Noroeste 47 Noroeste 0 902.5 0.6 31
2019-05-28 16:00:00 17.6 22 Noroeste 52 Noroeste 0 902.1 0.2 29
2019-05-28 15:00:00 17.7 23 Noroeste 63 Noroeste 0 901.5 -0.6 28
2019-05-28 14:00:00 18.1 16 Noroeste 42 Noroeste 0 901.9 0.3 28
2019-05-28 13:00:00 17.1 18 Noroeste 43 Noroeste 0 901.9 0.2 32
2019-05-28 12:00:00 16.7 19 Noroeste 48 Noroeste 0 902.1 1 34
2019-05-28 11:00:00 15.8 19 Noroeste 46 Noroeste 0 901.6 0.5 34
2019-05-28 10:00:00 14.9 18 Noroeste 40 Noroeste 0 901.7 0.9 34
2019-05-28 09:00:00 13.8 13 Noroeste 33 Noroeste 0 901.1 0.5 37
2019-05-28 08:00:00 8.5 5 Norte 24 Norte 0 901.1 0.7 59
2019-05-28 07:00:00 8.7 8 Norte 25 Norte 0 900.8 0.2 53
2019-05-28 06:00:00 8.7 12 Noroeste 30 Noroeste 0 900.6 -0.1 56
2019-05-28 05:00:00 8.9 11 Noroeste 26 Noroeste 0 900.4 -0.4 60
2019-05-28 04:00:00 8.3 4 Noroeste 18 Norte 0 900.6 -0.7 67
2019-05-28 03:00:00 9.8 8 Norte 21 Noroeste 0 900.7 -1 62
2019-05-28 02:00:00 10.7 6 Norte 22 Norte 0 900.8 -0.8 64
2019-05-28 01:00:00 10.8 4 Noroeste 17 Norte 0 901.3 0 66
2019-05-28 00:00:00 11.5 3 Noroeste 23 Noroeste 0 901.7 0.9 63
2019-05-27 23:00:00 14.1 10 Noroeste 25 Noroeste 0 901.6 1.2 52
2019-05-27 22:00:00 14.4 8 Noroeste 21 Noroeste 0 901.3 1.2 52
2019-05-27 21:00:00 15 9 Noroeste 27 Noroeste 0 900.8 1 54
2019-05-27 20:00:00 15.8 11 Noroeste 35 Noroeste 0 900.4 0.8 51
2019-05-27 19:00:00 16.7 16 Noroeste 51 Noroeste 0 900.1 0.3 48
2019-05-27 18:00:00 19.4 17 Noroeste 51 Noroeste 0 899.8 0 43
2019-05-27 17:00:00 19.1 10 Noroeste 42 Noroeste 0 899.6 -0.2 43
2019-05-27 16:00:00 19.4 18 Noroeste 36 Noroeste 0 899.8 0 41
2019-05-27 15:00:00 19.5 18 Noroeste 44 Noroeste 0 899.8 -0.1 40
2019-05-27 14:00:00 20.5 13 Noroeste 37 Noroeste 0 899.8 -0.4 36
2019-05-27 13:00:00 20.4 10 Noroeste 31 Norte 0 899.8 -0.9 34
2019-05-27 12:00:00 20.7 7 Sur 22 Sudeste 0 899.9 -0.9 35
2019-05-27 11:00:00 18.3 5 Sudeste 19 Sur 0 900.2 -0.8 46
2019-05-27 10:00:00 15.2 3 Sudeste 15 Este 0 900.7 -0.4 50
2019-05-27 09:00:00 9.8 3 Este 14 Nordeste 0 900.8 -0.5 77
2019-05-27 08:00:00 5.7 2 Sur 14 Nordeste 0 901 -0.8 91
2019-05-27 07:00:00 5.3 2 Noroeste 16 Sudeste 0 901.1 -1.1 89
2019-05-27 06:00:00 5.5 3 Noroeste 10 Noroeste 0 901.3 -1.1 86
2019-05-27 05:00:00 5.5 2 Noroeste 14 Nordeste 0 901.8 -0.9 87
2019-05-27 04:00:00 6 0 Calma 13 Nordeste 0 902.2 -1 85
2019-05-27 03:00:00 7 3 Noroeste 13 Noroeste 0 902.4 -0.9 80
2019-05-27 02:00:00 8.3 0 Calma 13 Nordeste 0 902.7 -0.9 71
2019-05-27 01:00:00 10.5 4 Noroeste 29 Norte 0 903.2 -0.7 62
2019-05-27 00:00:00 12.2 13 Noroeste 35 Norte 0 903.3 -0.7 53
2019-05-26 23:00:00 14 14 Noroeste 33 Noroeste 0 903.6 -0.6 43
2019-05-26 22:00:00 13.8 12 Noroeste 29 Noroeste 0 903.9 -0.5 45
2019-05-26 21:00:00 14.2 10 Noroeste 36 Noroeste 0 904 -0.2 44
2019-05-26 20:00:00 15.2 8 Noroeste 36 Noroeste 0 904.2 -0.1 42
2019-05-26 19:00:00 16.2 11 Noroeste 36 Noroeste 0 904.4 0 38
2019-05-26 18:00:00 17.9 9 Noroeste 35 Noroeste 0 904.2 -0.3 37
2019-05-26 17:00:00 20.4 11 Noroeste 36 Noroeste 0 904.3 -0.6 33
2019-05-26 16:00:00 21.6 10 Noroeste 32 Noroeste 0 904.4 -0.7 34
2019-05-26 15:00:00 20.1 9 Noroeste 38 Noroeste 0 904.5 -0.8 32
2019-05-26 14:00:00 19.1 12 Noroeste 38 Noroeste 0 904.9 -0.1 34
2019-05-26 13:00:00 18.4 13 Noroeste 36 Noroeste 0 905.1 -0.2 38
2019-05-26 12:00:00 18 14 Noroeste 44 Noroeste 0 905.3 0 41
2019-05-26 11:00:00 16.9 18 Noroeste 46 Noroeste 0 905 -0.3 38
2019-05-26 10:00:00 15.1 19 Noroeste 40 Noroeste 0 905.3 -0.1 43
2019-05-26 09:00:00 13.3 17 Noroeste 37 Noroeste 0 905.3 0.1 48
2019-05-26 08:00:00 8.6 14 Noroeste 33 Noroeste 0 905.3 -0.2 65
2019-05-26 07:00:00 7.3 15 Noroeste 36 Noroeste 0 905.4 -0.1 72
2019-05-26 06:00:00 7.9 15 Noroeste 31 Noroeste 0 905.2 -0.6 70
2019-05-26 05:00:00 8 12 Noroeste 30 Noroeste 0 905.5 -0.6 70
2019-05-26 04:00:00 9.7 12 Noroeste 33 Noroeste 0 905.5 -1.2 63
2019-05-26 03:00:00 10.7 12 Noroeste 32 Noroeste 0 905.8 -1 59
2019-05-26 02:00:00 10.1 9 Noroeste 26 Norte 0 906.1 -0.7 62
2019-05-26 01:00:00 10.2 9 Norte 27 Norte 0 906.7 0 64
2019-05-26 00:00:00 10.6 11 Norte 26 Norte 0 906.8 0.6 63